Terminal Aerodrome Forecast
Issued by NWS

Home | Current Version | Previous Version | Text Only | Print | Product List | Glossary On
Versions: 1 2 3 4 5 6 7 8 9 10 11 12 13 14 15
000
FTUS44 KBMX 192300
TAFTOI
TAF
KTOI 192340Z 2000/2024 03004KT P6SM -RA OVC080
     FM200300 01004KT P6SM -RA OVC040
     FM200800 36004KT 5SM -RA BR OVC012
     FM201400 36004KT P6SM OVC020
     FM201700 36004KT P6SM BKN050=

USA.gov is the U.S. government's official web portal to all federal, state and local government web resources and services.